Time;durP1;ratioP1;P1;durP2;ratioP2;P2;SDS_P1;SDS_P2;PMS_P1;PMS_P2;Temp;Humidity;BMP_temperature;BMP_pressure;BME280_temperature;BME280_humidity;BME280_pressure;Samples;Min_cycle;Max_cycle;Signal;HPM_P1;HPM_P2
2023/04/26 00:00:08;;;;;;;14.13;13.37;;;9.50;1.00;;;;;;5056484;28;20489;-84
2023/04/26 00:02:37;;;;;;;13.33;12.73;;;9.50;1.00;;;;;;5055210;28;20590;-83
2023/04/26 00:05:07;;;;;;;14.63;13.73;;;9.50;1.00;;;;;;5055048;28;20933;-83
2023/04/26 00:07:37;;;;;;;13.17;12.30;;;9.50;1.00;;;;;;5055921;28;20465;-83
2023/04/26 00:10:07;;;;;;;13.40;12.60;;;9.50;1.00;;;;;;5055344;28;20462;-83
2023/04/26 00:12:37;;;;;;;14.13;13.43;;;9.50;1.00;;;;;;5054091;28;20931;-84
2023/04/26 00:15:06;;;;;;;14.77;13.17;;;9.50;1.00;;;;;;5053471;28;20454;-83
2023/04/26 00:17:34;;;;;;;13.50;12.90;;;9.50;1.00;;;;;;5054951;28;20477;-83
2023/04/26 00:20:05;;;;;;;13.47;12.87;;;9.50;1.00;;;;;;5054810;28;20828;-83
2023/04/26 00:22:34;;;;;;;13.33;12.73;;;9.50;1.00;;;;;;5056703;28;20481;-84
2023/04/26 00:25:02;;;;;;;13.33;12.60;;;9.50;1.00;;;;;;5051281;28;20604;-83
2023/04/26 00:27:30;;;;;;;14.00;13.10;;;9.40;1.00;;;;;;5052241;28;20510;-84
2023/04/26 00:30:00;;;;;;;14.23;13.27;;;9.40;1.00;;;;;;5047630;28;20447;-84
2023/04/26 00:32:30;;;;;;;13.63;12.83;;;9.30;1.00;;;;;;5058830;28;20569;-85
2023/04/26 00:34:58;;;;;;;13.10;12.43;;;9.30;1.00;;;;;;5053917;28;20555;-85
2023/04/26 00:37:26;;;;;;;13.90;13.00;;;9.30;1.00;;;;;;5053755;28;21176;-84
2023/04/26 00:39:56;;;;;;;13.80;13.20;;;9.30;1.00;;;;;;5050066;28;20485;-84
2023/04/26 00:42:24;;;;;;;12.20;11.70;;;9.30;1.00;;;;;;5054673;28;20481;-84
2023/04/26 00:44:56;;;;;;;14.07;13.07;;;9.20;1.00;;;;;;5054451;28;20451;-84
2023/04/26 00:47:26;;;;;;;13.83;13.10;;;9.30;1.00;;;;;;5049978;28;20968;-84
2023/04/26 00:49:54;;;;;;;14.13;13.27;;;9.30;1.00;;;;;;5055238;28;20494;-84
2023/04/26 00:52:23;;;;;;;12.93;12.30;;;9.20;1.00;;;;;;5053915;28;20992;-85
2023/04/26 00:54:53;;;;;;;14.40;13.10;;;9.10;1.00;;;;;;5055004;28;20532;-85
2023/04/26 00:57:23;;;;;;;13.13;12.43;;;9.10;1.00;;;;;;5058302;28;20913;-84
2023/04/26 00:59:52;;;;;;;12.97;12.27;;;9.10;1.00;;;;;;5056022;28;20494;-83
2023/04/26 01:02:20;;;;;;;12.10;11.60;;;9.10;1.00;;;;;;5052184;28;20489;-83
2023/04/26 01:04:50;;;;;;;12.00;11.50;;;9.10;1.00;;;;;;5058710;28;20461;-84
2023/04/26 01:07:19;;;;;;;13.00;12.37;;;9.00;1.00;;;;;;5051580;28;20474;-84
2023/04/26 01:09:48;;;;;;;13.70;12.90;;;9.00;1.00;;;;;;5055433;28;20450;-85
2023/04/26 01:12:17;;;;;;;12.60;12.10;;;9.00;1.00;;;;;;5062859;28;20471;-85
2023/04/26 01:14:45;;;;;;;13.03;12.37;;;9.00;1.00;;;;;;5056742;28;20576;-85
2023/04/26 01:17:14;;;;;;;12.30;11.80;;;9.00;1.00;;;;;;5058085;28;20460;-85
2023/04/26 01:19:47;;;;;;;14.00;12.80;;;8.90;1.00;;;;;;5060486;28;20481;-84
2023/04/26 01:22:17;;;;;;;12.53;11.97;;;8.90;99.90;;;;;;5060321;28;21004;-85
2023/04/26 01:24:50;;;;;;;12.90;12.17;;;8.90;99.90;;;;;;5063967;28;20457;-85
2023/04/26 01:27:18;;;;;;;13.20;12.50;;;8.90;99.90;;;;;;5058891;28;20466;-85
2023/04/26 01:29:47;;;;;;;12.83;12.30;;;8.90;99.90;;;;;;5060747;28;20448;-86
2023/04/26 01:32:15;;;;;;;12.10;11.30;;;8.90;99.90;;;;;;5060348;28;20463;-85
2023/04/26 01:34:43;;;;;;;12.97;12.20;;;8.90;99.90;;;;;;5055754;28;20486;-85
2023/04/26 01:37:12;;;;;;;12.30;11.70;;;8.80;99.90;;;;;;5055888;28;20980;-83
2023/04/26 01:39:40;;;;;;;11.90;11.30;;;8.80;99.90;;;;;;5052755;28;20454;-84
2023/04/26 01:42:10;;;;;;;12.83;12.27;;;8.80;99.90;;;;;;5056113;28;20478;-84
2023/04/26 01:44:38;;;;;;;13.77;12.83;;;8.80;99.90;;;;;;5057898;28;20459;-84
2023/04/26 01:47:06;;;;;;;12.47;11.53;;;8.80;99.90;;;;;;5058608;28;20440;-86
2023/04/26 01:49:35;;;;;;;12.30;11.80;;;8.70;99.90;;;;;;5060800;28;20461;-85
2023/04/26 01:52:03;;;;;;;11.90;11.30;;;8.70;99.90;;;;;;5061344;28;20542;-85
2023/04/26 01:54:32;;;;;;;12.33;11.73;;;8.70;99.90;;;;;;5059907;28;20449;-84
2023/04/26 01:57:01;;;;;;;12.20;11.60;;;8.60;99.90;;;;;;5059577;28;20537;-85
2023/04/26 01:59:31;;;;;;;12.43;11.73;;;8.60;99.90;;;;;;5058172;28;20530;-84
2023/04/26 02:01:59;;;;;;;12.07;11.30;;;8.60;99.90;;;;;;5064580;28;20895;-84
2023/04/26 02:04:28;;;;;;;11.87;11.27;;;8.60;99.90;;;;;;5059508;28;20451;-84
2023/04/26 02:06:57;;;;;;;11.33;10.80;;;8.60;99.90;;;;;;5059536;28;20532;-85
2023/04/26 02:09:25;;;;;;;11.80;10.97;;;8.50;99.90;;;;;;5059895;28;20515;-84
2023/04/26 02:11:53;;;;;;;12.40;11.70;;;8.50;99.90;;;;;;5059997;28;20510;-84
2023/04/26 02:14:23;;;;;;;11.33;10.73;;;8.50;99.90;;;;;;5056856;28;20991;-85
2023/04/26 02:17:00;;;;;;;11.83;10.90;;;8.40;99.90;;;;;;5057736;28;20470;-84
2023/04/26 02:19:29;;;;;;;11.60;11.10;;;8.40;99.90;;;;;;5057678;28;20481;-84
2023/04/26 02:21:58;;;;;;;11.40;10.80;;;8.40;99.90;;;;;;5054954;28;20503;-84
2023/04/26 02:24:27;;;;;;;11.70;11.20;;;8.40;99.90;;;;;;5056553;28;20449;-83
2023/04/26 02:26:55;;;;;;;11.40;10.80;;;8.40;99.90;;;;;;5055417;28;20453;-83
2023/04/26 02:29:23;;;;;;;12.37;11.43;;;8.40;99.90;;;;;;5054198;28;20455;-83
2023/04/26 02:32:11;;;;;;;12.33;11.27;;;8.30;99.90;;;;;;5057072;28;20469;-82
2023/04/26 02:34:40;;;;;;;12.20;11.40;;;8.30;99.90;;;;;;5057361;28;20952;-83
2023/04/26 02:37:08;;;;;;;11.10;10.60;;;8.30;99.90;;;;;;5053728;28;20922;-83
2023/04/26 02:39:36;;;;;;;12.13;11.63;;;8.30;99.90;;;;;;5060547;28;20429;-83
2023/04/26 02:42:08;;;;;;;12.77;11.93;;;8.30;1.00;;;;;;5072295;28;20517;-83
2023/04/26 02:44:38;;;;;;;12.40;11.60;;;8.30;1.00;;;;;;5077222;28;20469;-85
2023/04/26 02:47:06;;;;;;;12.30;11.60;;;8.20;1.00;;;;;;5084035;28;20453;-83
2023/04/26 02:49:36;;;;;;;11.97;11.00;;;8.20;1.00;;;;;;5069283;28;20457;-83
2023/04/26 02:52:04;;;;;;;11.80;11.10;;;8.20;1.00;;;;;;5053645;28;20502;-83
2023/04/26 02:54:33;;;;;;;13.67;12.57;;;8.20;1.00;;;;;;5061217;28;20481;-84
2023/04/26 02:57:01;;;;;;;12.20;11.40;;;8.20;1.00;;;;;;5058700;28;20813;-85
2023/04/26 02:59:29;;;;;;;13.10;11.90;;;8.20;99.90;;;;;;5053756;28;20461;-82
2023/04/26 03:01:58;;;;;;;12.53;11.70;;;8.30;1.00;;;;;;5056534;28;20482;-84
2023/04/26 03:04:26;;;;;;;12.40;11.50;;;8.20;1.00;;;;;;5058887;28;20466;-84
2023/04/26 03:06:59;;;;;;;11.80;11.00;;;8.20;1.00;;;;;;5050210;28;20511;-84
2023/04/26 03:09:27;;;;;;;12.37;11.57;;;8.20;1.00;;;;;;5057801;28;20446;-82
2023/04/26 03:11:55;;;;;;;13.00;12.30;;;8.20;1.00;;;;;;5059034;28;21138;-83
2023/04/26 03:14:23;;;;;;;12.33;11.73;;;8.20;1.00;;;;;;5056134;28;20454;-83
2023/04/26 03:16:52;;;;;;;11.87;11.17;;;8.20;1.00;;;;;;5057397;28;20508;-82
2023/04/26 03:19:20;;;;;;;12.00;11.40;;;8.20;1.00;;;;;;5056637;28;20589;-82
2023/04/26 03:21:48;;;;;;;12.13;11.50;;;8.20;1.00;;;;;;5056504;28;20488;-83
2023/04/26 03:24:18;;;;;;;13.67;12.83;;;8.20;1.00;;;;;;5057221;28;20449;-83
2023/04/26 03:26:46;;;;;;;12.07;11.47;;;8.10;1.00;;;;;;5055555;28;20526;-82
2023/04/26 03:29:14;;;;;;;13.13;11.93;;;8.10;1.00;;;;;;5053987;28;20497;-83
2023/04/26 03:31:43;;;;;;;12.77;12.07;;;8.10;1.00;;;;;;5054266;28;20472;-83
2023/04/26 03:34:11;;;;;;;14.67;13.47;;;8.10;1.00;;;;;;5055306;28;20896;-83
2023/04/26 03:36:39;;;;;;;12.23;11.63;;;8.10;1.00;;;;;;5054482;28;21038;-82
2023/04/26 03:39:07;;;;;;;12.90;12.20;;;8.10;1.00;;;;;;5057930;28;21067;-83
2023/04/26 03:41:39;;;;;;;12.50;11.83;;;8.10;1.00;;;;;;5051435;28;20554;-83
2023/04/26 03:44:07;;;;;;;12.97;12.30;;;8.00;1.00;;;;;;5055310;28;20451;-83
2023/04/26 03:46:35;;;;;;;12.60;11.90;;;7.90;1.00;;;;;;5054310;28;20477;-82
2023/04/26 03:49:04;;;;;;;13.07;12.40;;;7.90;1.00;;;;;;5055037;28;20508;-82
2023/04/26 03:51:32;;;;;;;13.93;13.23;;;7.80;1.00;;;;;;5051252;28;20469;-83
2023/04/26 03:54:00;;;;;;;13.23;12.43;;;7.80;1.00;;;;;;5049674;28;20493;-82
2023/04/26 03:56:28;;;;;;;12.27;11.53;;;7.80;1.00;;;;;;5055531;28;21102;-84
2023/04/26 03:58:58;;;;;;;12.70;11.97;;;7.80;1.00;;;;;;5051331;28;20534;-84
2023/04/26 04:01:27;;;;;;;13.17;12.30;;;7.70;1.00;;;;;;5051464;28;20486;-83
2023/04/26 04:03:55;;;;;;;12.93;12.20;;;7.60;1.00;;;;;;5056259;28;20490;-84
2023/04/26 04:06:24;;;;;;;12.67;11.87;;;7.60;1.00;;;;;;5056035;28;20449;-82
2023/04/26 04:08:52;;;;;;;12.80;12.10;;;7.60;1.00;;;;;;5049351;28;20453;-82
2023/04/26 04:11:21;;;;;;;13.30;12.17;;;7.60;1.00;;;;;;5051404;28;20474;-83
2023/04/26 04:13:50;;;;;;;13.43;12.63;;;7.50;1.00;;;;;;5057235;28;20461;-79
2023/04/26 04:16:19;;;;;;;13.80;12.90;;;7.50;1.00;;;;;;5055730;28;20463;-83
2023/04/26 04:18:47;;;;;;;13.70;12.80;;;7.40;1.00;;;;;;5055485;28;20509;-81
2023/04/26 04:21:16;;;;;;;12.80;12.00;;;7.40;1.00;;;;;;5055874;28;20563;-81
2023/04/26 04:23:44;;;;;;;12.73;11.83;;;7.40;1.00;;;;;;5050195;28;20858;-82
2023/04/26 04:26:13;;;;;;;15.13;13.33;;;7.40;1.00;;;;;;5051995;28;20465;-83
2023/04/26 04:28:41;;;;;;;14.40;13.30;;;7.50;1.00;;;;;;5055217;28;21160;-83
2023/04/26 04:31:10;;;;;;;14.10;13.40;;;7.50;1.00;;;;;;5054434;28;20483;-84
2023/04/26 04:33:39;;;;;;;13.87;13.00;;;7.50;1.00;;;;;;5052677;28;20473;-81
2023/04/26 04:36:08;;;;;;;14.40;13.37;;;7.50;1.00;;;;;;5054305;28;20460;-83
2023/04/26 04:38:36;;;;;;;13.60;12.90;;;7.60;1.00;;;;;;5053510;28;20455;-81
2023/04/26 04:41:05;;;;;;;16.13;15.10;;;7.60;1.00;;;;;;5055274;28;20486;-82
2023/04/26 04:43:33;;;;;;;15.43;14.43;;;7.60;41.30;;;;;;5051712;28;20954;-81
2023/04/26 04:46:01;;;;;;;15.67;14.47;;;7.60;1.00;;;;;;5055571;28;20621;-80
2023/04/26 04:48:29;;;;;;;16.13;14.83;;;7.60;1.00;;;;;;5050017;28;20479;-80
2023/04/26 04:50:59;;;;;;;14.37;13.67;;;7.60;6.40;;;;;;5058393;28;20469;-81
2023/04/26 04:53:27;;;;;;;14.10;13.30;;;7.70;1.00;;;;;;5051395;28;20457;-80
2023/04/26 04:55:55;;;;;;;15.63;14.73;;;7.70;99.90;;;;;;5053902;28;20453;-80
2023/04/26 04:58:24;;;;;;;16.00;15.00;;;7.70;99.90;;;;;;5055431;28;20460;-80
2023/04/26 05:00:53;;;;;;;17.03;15.60;;;7.70;68.40;;;;;;5051536;28;20480;-82
2023/04/26 05:03:21;;;;;;;16.80;15.60;;;7.70;99.90;;;;;;5055578;28;20535;-81
2023/04/26 05:05:49;;;;;;;15.93;14.77;;;7.80;99.90;;;;;;5051960;28;20454;-81
2023/04/26 05:08:19;;;;;;;16.30;15.27;;;7.80;99.90;;;;;;5053439;28;20903;-83
2023/04/26 05:10:47;;;;;;;15.00;14.20;;;7.90;99.90;;;;;;5043713;28;20491;-82
2023/04/26 05:13:15;;;;;;;16.37;15.10;;;7.90;99.90;;;;;;5049198;28;20461;-82
2023/04/26 05:15:43;;;;;;;16.50;15.23;;;7.90;99.90;;;;;;5046631;28;20455;-83
2023/04/26 05:18:12;;;;;;;15.60;14.70;;;7.90;52.70;;;;;;5052732;28;21632;-82
2023/04/26 05:20:40;;;;;;;15.63;14.67;;;8.00;99.90;;;;;;5055893;28;20838;-83
2023/04/26 05:23:08;;;;;;;16.63;15.43;;;7.90;99.90;;;;;;5053275;28;20488;-82
2023/04/26 05:25:38;;;;;;;17.53;16.20;;;8.00;99.90;;;;;;5051841;28;21211;-83
2023/04/26 05:28:11;;;;;;;17.10;15.83;;;8.00;91.50;;;;;;5046854;28;20459;-82
2023/04/26 05:30:39;;;;;;;16.27;15.43;;;8.10;40.40;;;;;;5050197;28;21062;-83
2023/04/26 05:33:07;;;;;;;16.80;15.80;;;8.10;51.20;;;;;;5055531;28;20457;-83
2023/04/26 05:35:36;;;;;;;16.93;15.70;;;8.10;99.90;;;;;;5056050;28;20450;-84
2023/04/26 05:38:04;;;;;;;16.43;15.33;;;8.10;37.90;;;;;;5056228;28;20462;-82
2023/04/26 05:40:32;;;;;;;16.30;15.30;;;8.10;99.90;;;;;;5057764;28;20999;-81
2023/04/26 05:43:02;;;;;;;16.67;15.57;;;8.10;99.90;;;;;;5050895;28;20481;-82
2023/04/26 05:45:30;;;;;;;17.10;15.77;;;8.20;79.60;;;;;;5055996;28;20461;-82
2023/04/26 05:47:58;;;;;;;16.43;15.40;;;8.20;99.90;;;;;;5055732;28;20460;-83
2023/04/26 05:50:27;;;;;;;16.47;15.27;;;8.30;99.90;;;;;;5058375;28;20507;-81
2023/04/26 05:52:55;;;;;;;16.13;14.70;;;8.40;99.90;;;;;;5062927;28;20476;-82
2023/04/26 05:55:23;;;;;;;17.93;16.57;;;8.40;67.10;;;;;;5066157;28;20487;-82
2023/04/26 05:57:52;;;;;;;17.40;16.00;;;8.50;38.20;;;;;;5062729;28;21348;-81
2023/04/26 06:00:23;;;;;;;16.73;15.73;;;8.40;99.90;;;;;;5060664;28;20468;-83
2023/04/26 06:02:51;;;;;;;16.83;15.83;;;8.50;99.90;;;;;;5058551;28;20490;-81
2023/04/26 06:05:20;;;;;;;17.37;16.30;;;8.60;99.90;;;;;;5062065;28;20450;-81
2023/04/26 06:07:48;;;;;;;17.67;16.47;;;8.80;99.90;;;;;;5060871;28;20456;-81
2023/04/26 06:10:16;;;;;;;19.10;18.00;;;9.00;21.70;;;;;;5062448;28;20454;-81
2023/04/26 06:12:45;;;;;;;18.53;17.43;;;9.10;1.00;;;;;;5059276;28;20510;-84
2023/04/26 06:15:13;;;;;;;18.57;17.30;;;9.20;1.00;;;;;;5058616;28;20454;-81
2023/04/26 06:17:43;;;;;;;18.07;16.97;;;9.40;1.00;;;;;;5061953;28;21019;-81
2023/04/26 06:20:12;;;;;;;18.00;16.70;;;9.40;1.00;;;;;;5058837;28;21013;-82
2023/04/26 06:22:40;;;;;;;18.07;16.77;;;9.70;1.00;;;;;;5056118;28;20489;-82
2023/04/26 06:25:09;;;;;;;16.50;15.50;;;9.90;99.90;;;;;;5056369;28;21018;-83
2023/04/26 06:27:39;;;;;;;16.37;15.17;;;9.90;99.90;;;;;;5053892;28;20801;-83
2023/04/26 06:30:08;;;;;;;16.43;15.40;;;9.90;99.90;;;;;;5052280;28;20977;-81
2023/04/26 06:32:38;;;;;;;15.77;14.90;;;10.10;99.90;;;;;;5053019;28;20483;-82
2023/04/26 06:35:08;;;;;;;17.30;16.30;;;10.10;99.90;;;;;;5053535;28;20450;-83
2023/04/26 06:37:37;;;;;;;16.20;15.20;;;10.20;99.90;;;;;;5052255;28;20520;-83
2023/04/26 06:40:06;;;;;;;15.80;14.70;;;10.30;99.90;;;;;;5051382;28;20527;-83
2023/04/26 06:42:35;;;;;;;15.37;14.10;;;10.30;99.90;;;;;;5053136;28;20478;-82
2023/04/26 06:45:04;;;;;;;13.93;13.23;;;10.30;99.90;;;;;;5053696;28;20462;-82
2023/04/26 06:47:32;;;;;;;14.10;13.40;;;10.40;99.90;;;;;;5053692;28;20451;-82
2023/04/26 06:50:00;;;;;;;13.97;13.17;;;10.20;99.90;;;;;;5050899;28;20470;-83
2023/04/26 06:52:30;;;;;;;14.73;13.73;;;10.20;99.90;;;;;;5053697;28;20470;-82
2023/04/26 06:55:01;;;;;;;13.37;12.53;;;10.40;99.90;;;;;;5055972;28;20558;-82
2023/04/26 06:57:30;;;;;;;13.50;12.70;;;10.80;99.90;;;;;;5052746;28;20459;-82
2023/04/26 06:59:58;;;;;;;12.90;12.30;;;11.10;99.90;;;;;;5049253;28;20445;-82
2023/04/26 07:02:26;;;;;;;13.47;12.73;;;11.40;99.90;;;;;;5050849;28;20482;-83
2023/04/26 07:04:55;;;;;;;12.00;11.50;;;11.60;99.90;;;;;;5051116;28;20447;-83
2023/04/26 07:07:23;;;;;;;11.87;11.37;;;11.80;99.90;;;;;;5052420;28;20455;-82
2023/04/26 07:09:53;;;;;;;12.80;12.03;;;12.00;99.90;;;;;;5052026;28;20452;-83
2023/04/26 07:12:21;;;;;;;11.80;11.20;;;12.00;99.90;;;;;;5051928;28;20471;-83
2023/04/26 07:14:50;;;;;;;11.73;11.07;;;12.10;99.90;;;;;;5051447;28;20520;-83
2023/04/26 07:17:18;;;;;;;11.40;10.90;;;12.20;99.90;;;;;;5052206;28;20654;-82
2023/04/26 07:19:46;;;;;;;11.47;10.63;;;12.10;99.90;;;;;;5054742;28;20463;-83
2023/04/26 07:22:14;;;;;;;11.30;10.60;;;12.10;99.90;;;;;;5053572;28;20478;-83
2023/04/26 07:24:43;;;;;;;11.33;10.90;;;12.00;99.90;;;;;;5053093;28;20483;-82
2023/04/26 07:27:12;;;;;;;10.60;10.00;;;11.80;99.90;;;;;;5050601;28;20458;-82
2023/04/26 07:29:41;;;;;;;10.10;9.50;;;11.60;99.90;;;;;;5049936;28;20454;-81
2023/04/26 07:32:09;;;;;;;10.60;10.20;;;11.60;99.90;;;;;;5054647;28;20578;-84
2023/04/26 07:34:37;;;;;;;10.97;10.40;;;11.70;99.90;;;;;;5054666;28;20914;-84
2023/04/26 07:37:05;;;;;;;11.13;10.63;;;11.60;99.90;;;;;;5056802;28;20462;-84
2023/04/26 07:39:34;;;;;;;11.60;10.87;;;11.60;99.90;;;;;;5066413;28;20477;-84
2023/04/26 07:42:02;;;;;;;11.00;10.30;;;11.60;99.90;;;;;;5085060;28;20452;-84
2023/04/26 07:44:32;;;;;;;11.03;10.27;;;11.60;99.90;;;;;;5080758;28;20534;-84
2023/04/26 07:47:00;;;;;;;11.07;10.57;;;11.80;99.90;;;;;;5076811;28;20468;-85
2023/04/26 07:49:28;;;;;;;10.87;10.27;;;11.60;99.90;;;;;;5065420;28;20447;-86
2023/04/26 07:52:00;;;;;;;10.50;10.00;;;11.50;99.90;;;;;;5057804;28;20556;-83
2023/04/26 07:54:29;;;;;;;10.77;10.27;;;11.50;99.90;;;;;;5058000;28;20915;-84
2023/04/26 07:56:58;;;;;;;11.33;10.83;;;11.40;99.90;;;;;;5064803;28;20202;-84
2023/04/26 07:59:26;;;;;;;11.53;10.60;;;11.40;99.90;;;;;;5059823;28;20470;-84
2023/04/26 08:01:56;;;;;;;11.30;10.80;;;11.50;99.90;;;;;;5063328;28;21131;-84
2023/04/26 08:04:32;;;;;;;10.93;10.40;;;11.50;99.90;;;;;;5063781;28;20482;-84
2023/04/26 08:07:01;;;;;;;10.57;10.17;;;11.50;99.90;;;;;;5060637;28;20636;-85
2023/04/26 08:09:30;;;;;;;12.07;11.33;;;11.80;99.90;;;;;;5069052;28;20528;-85
2023/04/26 08:11:58;;;;;;;11.70;11.10;;;11.70;99.90;;;;;;5063183;28;21068;-83
2023/04/26 08:14:27;;;;;;;12.17;11.47;;;11.90;99.90;;;;;;5073221;28;20831;-84
2023/04/26 08:16:57;;;;;;;11.50;10.90;;;12.00;99.90;;;;;;5066352;28;20486;-84
2023/04/26 08:19:25;;;;;;;12.17;11.63;;;12.10;99.90;;;;;;5066616;28;20452;-85
2023/04/26 08:21:53;;;;;;;11.90;11.20;;;12.30;99.90;;;;;;5062973;28;20956;-83
2023/04/26 08:24:22;;;;;;;12.67;11.90;;;12.30;99.90;;;;;;5060131;28;20818;-83
2023/04/26 08:26:50;;;;;;;12.60;11.80;;;12.40;99.90;;;;;;5058613;28;20987;-83
2023/04/26 08:29:19;;;;;;;11.27;10.70;;;12.40;99.90;;;;;;5059657;28;20510;-84
2023/04/26 08:31:47;;;;;;;11.80;11.10;;;12.20;99.90;;;;;;5056036;28;20528;-83
2023/04/26 08:34:17;;;;;;;10.30;9.90;;;12.00;99.90;;;;;;5059391;28;20454;-82
2023/04/26 08:36:45;;;;;;;11.30;10.60;;;11.80;99.90;;;;;;5060763;28;20459;-82
2023/04/26 08:39:14;;;;;;;10.53;9.97;;;11.70;99.90;;;;;;5053448;28;20455;-81
2023/04/26 08:41:45;;;;;;;10.50;10.10;;;11.50;99.90;;;;;;5054242;28;20490;-82
2023/04/26 08:44:14;;;;;;;10.80;10.20;;;11.50;99.90;;;;;;5055712;28;20467;-81
2023/04/26 08:46:50;;;;;;;11.00;10.40;;;11.50;99.90;;;;;;5057499;28;20464;-82
2023/04/26 08:49:32;;;;;;;10.77;10.00;;;11.60;99.90;;;;;;5057923;28;20514;-81
2023/04/26 08:52:02;;;;;;;11.03;10.53;;;11.60;99.90;;;;;;5061187;28;20466;-82
2023/04/26 08:54:32;;;;;;;10.33;9.63;;;11.60;99.90;;;;;;5059322;28;20459;-82
2023/04/26 08:57:01;;;;;;;10.33;9.27;;;11.50;99.90;;;;;;5060871;28;21031;-82
2023/04/26 08:59:31;;;;;;;10.07;9.57;;;11.40;99.90;;;;;;5060014;28;20454;-82
2023/04/26 09:02:01;;;;;;;10.40;9.90;;;11.30;99.90;;;;;;5056443;28;20525;-81
2023/04/26 09:04:31;;;;;;;10.73;9.80;;;11.20;99.90;;;;;;5057515;28;20471;-83
2023/04/26 09:07:02;;;;;;;10.70;10.00;;;11.20;99.90;;;;;;5061567;28;20451;-81
2023/04/26 09:09:37;;;;;;;10.80;10.30;;;11.20;99.90;;;;;;5059147;28;20452;-82
2023/04/26 09:12:06;;;;;;;10.83;10.43;;;11.20;99.90;;;;;;5059639;28;20475;-82
2023/04/26 09:14:34;;;;;;;11.07;10.38;;;11.30;99.90;;;;;;5060608;28;20433;-82
2023/04/26 09:17:02;;;;;;;11.03;10.53;;;11.20;99.90;;;;;;5058904;28;20225;-81
2023/04/26 09:19:41;;;;;;;11.13;10.43;;;11.40;99.90;;;;;;5057104;28;20475;-81
2023/04/26 09:22:10;;;;;;;10.43;9.83;;;11.50;99.90;;;;;;5060060;28;20553;-81
2023/04/26 09:24:49;;;;;;;11.27;10.47;;;11.60;99.90;;;;;;5063849;28;20476;-81
2023/04/26 09:27:17;;;;;;;11.70;11.07;;;11.90;99.90;;;;;;5064868;28;20913;-81
2023/04/26 09:29:59;;;;;;;10.90;10.33;;;12.30;99.90;;;;;;5066222;28;20491;-82
2023/04/26 09:32:29;;;;;;;11.33;10.63;;;12.50;99.90;;;;;;5061767;28;20525;-82
2023/04/26 09:34:58;;;;;;;12.00;11.30;;;12.70;99.90;;;;;;5059674;28;20440;-81
2023/04/26 09:37:26;;;;;;;11.17;10.57;;;13.00;99.90;;;;;;5063293;28;20444;-81
2023/04/26 09:39:54;;;;;;;10.43;10.03;;;13.10;99.90;;;;;;5062479;28;20444;-81
2023/04/26 09:42:23;;;;;;;10.30;9.70;;;13.10;99.90;;;;;;5064930;28;20521;-82
2023/04/26 09:44:53;;;;;;;9.77;9.37;;;13.00;99.90;;;;;;5064573;28;20460;-81
2023/04/26 09:47:22;;;;;;;10.00;9.47;;;12.90;99.90;;;;;;5059984;28;20452;-82
2023/04/26 09:49:51;;;;;;;10.30;9.60;;;12.70;99.90;;;;;;5059569;28;20660;-81
2023/04/26 09:52:21;;;;;;;9.57;9.27;;;12.60;99.90;;;;;;5050674;28;20514;-82
2023/04/26 09:54:51;;;;;;;10.37;9.87;;;12.60;99.90;;;;;;5060733;28;20448;-80
2023/04/26 09:57:22;;;;;;;10.40;9.80;;;12.50;99.90;;;;;;5062894;28;20475;-82
2023/04/26 09:59:53;;;;;;;10.23;9.43;;;12.50;99.90;;;;;;5064005;28;20442;-84
2023/04/26 10:02:26;;;;;;;10.33;9.73;;;12.40;99.90;;;;;;5063376;28;20478;-83
2023/04/26 10:04:58;;;;;;;10.87;10.07;;;12.30;99.90;;;;;;5064032;28;20475;-82
2023/04/26 10:07:30;;;;;;;10.13;9.60;;;12.30;99.90;;;;;;5061820;28;20466;-82
2023/04/26 10:09:58;;;;;;;9.50;8.93;;;12.30;99.90;;;;;;5061945;28;20538;-82
2023/04/26 10:12:28;;;;;;;9.53;9.13;;;12.40;99.90;;;;;;5060129;28;20474;-81
2023/04/26 10:14:57;;;;;;;9.77;9.27;;;12.50;99.90;;;;;;5063354;28;20452;-81
2023/04/26 10:17:25;;;;;;;9.43;8.93;;;12.40;99.90;;;;;;5064182;28;20545;-82
2023/04/26 10:19:57;;;;;;;10.80;10.00;;;12.40;99.90;;;;;;5060772;28;20960;-82
2023/04/26 10:22:32;;;;;;;10.83;9.97;;;12.60;99.90;;;;;;5061620;28;20489;-82
2023/04/26 10:25:00;;;;;;;10.50;9.80;;;12.80;99.90;;;;;;5061239;28;20473;-82
2023/04/26 10:27:54;;;;;;;10.53;9.93;;;12.80;99.90;;;;;;5071403;28;20873;-83
2023/04/26 10:30:23;;;;;;;9.30;8.80;;;12.60;99.90;;;;;;5060849;28;20468;-82
2023/04/26 10:33:16;;;;;;;9.50;9.10;;;12.60;99.90;;;;;;5060318;28;20465;-82
2023/04/26 10:36:04;;;;;;;9.90;9.20;;;12.80;99.90;;;;;;5057137;28;20444;-82
2023/04/26 10:38:35;;;;;;;9.57;8.87;;;12.80;99.90;;;;;;5055974;28;20452;-82
2023/04/26 10:41:30;;;;;;;9.43;9.03;;;12.70;99.90;;;;;;5060218;28;20554;-82
2023/04/26 10:44:00;;;;;;;9.27;8.70;;;12.70;99.20;;;;;;5060976;28;21254;-82
2023/04/26 10:46:37;;;;;;;9.27;8.53;;;12.80;99.90;;;;;;5059741;28;21401;-83
2023/04/26 10:49:16;;;;;;;9.50;8.97;;;12.90;98.80;;;;;;5057175;28;20453;-82
2023/04/26 10:52:10;;;;;;;9.00;8.50;;;12.80;99.90;;;;;;5059386;28;20483;-82
2023/04/26 10:55:05;;;;;;;8.00;7.70;;;12.90;97.40;;;;;;5059120;28;20451;-82
2023/04/26 10:58:00;;;;;;;9.10;8.60;;;12.90;97.10;;;;;;5055761;28;20454;-84
2023/04/26 11:00:30;;;;;;;8.03;7.77;;;13.00;99.90;;;;;;5020621;28;20845;-84
2023/04/26 11:03:05;;;;;;;8.93;8.33;;;13.10;97.50;;;;;;5049817;28;20843;-84
2023/04/26 11:05:55;;;;;;;9.07;8.77;;;13.30;97.90;;;;;;5055914;28;20462;-83
2023/04/26 11:08:28;;;;;;;9.30;8.70;;;13.30;97.40;;;;;;5050148;28;20471;-84
2023/04/26 11:11:08;;;;;;;9.20;8.57;;;13.30;96.40;;;;;;5051217;28;20998;-83
2023/04/26 11:13:38;;;;;;;7.87;7.37;;;13.00;93.30;;;;;;5060681;28;20458;-84
2023/04/26 11:16:08;;;;;;;8.20;7.90;;;13.00;94.00;;;;;;5054788;28;20454;-84
2023/04/26 11:18:37;;;;;;;8.30;8.00;;;13.10;93.40;;;;;;5057496;28;20812;-82
2023/04/26 11:21:06;;;;;;;7.93;7.63;;;13.10;93.60;;;;;;5056698;28;20473;-83
2023/04/26 11:23:35;;;;;;;8.30;7.87;;;13.10;93.20;;;;;;5057716;28;20470;-83
2023/04/26 11:26:07;;;;;;;8.07;7.77;;;13.20;97.10;;;;;;5058271;28;20527;-84
2023/04/26 11:28:37;;;;;;;8.03;7.53;;;13.40;97.60;;;;;;5048134;28;20456;-84
2023/04/26 11:31:06;;;;;;;8.70;8.30;;;13.60;98.60;;;;;;5055674;28;20499;-84
2023/04/26 11:33:35;;;;;;;8.63;7.97;;;13.70;98.00;;;;;;5057722;28;20453;-84
2023/04/26 11:36:04;;;;;;;8.50;7.80;;;13.60;95.00;;;;;;5057579;28;20460;-83
2023/04/26 11:38:32;;;;;;;7.37;6.97;;;13.60;92.80;;;;;;5061409;28;20462;-83
2023/04/26 11:41:02;;;;;;;7.80;7.30;;;13.60;92.90;;;;;;5057064;28;20511;-82
2023/04/26 11:43:35;;;;;;;8.40;8.10;;;13.70;97.50;;;;;;5060613;28;20448;-84
2023/04/26 11:46:05;;;;;;;8.00;7.80;;;13.70;92.90;;;;;;5060015;28;20482;-82
2023/04/26 11:48:35;;;;;;;9.07;8.40;;;13.70;93.80;;;;;;5058473;28;20574;-84
2023/04/26 11:51:05;;;;;;;7.97;7.77;;;13.80;97.50;;;;;;5056157;28;20488;-84
2023/04/26 11:53:37;;;;;;;9.17;8.77;;;13.90;97.80;;;;;;5056572;28;20457;-83
2023/04/26 11:56:15;;;;;;;9.23;8.80;;;14.10;98.30;;;;;;5057357;28;20456;-83
2023/04/26 11:58:49;;;;;;;8.67;8.37;;;14.20;99.90;;;;;;5058893;28;20460;-84
2023/04/26 12:01:23;;;;;;;9.57;9.17;;;14.30;99.40;;;;;;5057561;28;20491;-83
2023/04/26 12:03:52;;;;;;;9.83;9.27;;;14.40;99.50;;;;;;5058851;28;20559;-83
2023/04/26 12:06:29;;;;;;;9.70;9.30;;;14.50;98.80;;;;;;5057377;28;20553;-83
2023/04/26 12:08:57;;;;;;;8.60;8.30;;;14.50;98.30;;;;;;5058789;28;20461;-84
2023/04/26 12:11:27;;;;;;;8.80;8.30;;;14.50;98.90;;;;;;5056464;28;20502;-85
2023/04/26 12:13:58;;;;;;;9.37;9.00;;;14.40;98.50;;;;;;5055261;28;21104;-84
2023/04/26 12:16:26;;;;;;;9.57;9.00;;;14.50;97.70;;;;;;5059023;28;20471;-85
2023/04/26 12:18:56;;;;;;;8.20;7.70;;;14.50;97.00;;;;;;5055714;28;20459;-84
2023/04/26 12:21:26;;;;;;;8.70;8.50;;;14.50;98.50;;;;;;5057773;28;20817;-84
2023/04/26 12:23:58;;;;;;;8.40;8.10;;;14.50;97.80;;;;;;5050300;28;20446;-85
2023/04/26 12:26:43;;;;;;;8.20;7.80;;;14.50;95.20;;;;;;5057309;28;20486;-85
2023/04/26 12:29:13;;;;;;;8.50;8.10;;;14.50;95.50;;;;;;5055200;28;20450;-84
2023/04/26 12:31:43;;;;;;;8.33;7.90;;;14.20;90.00;;;;;;5051493;28;21103;-84
2023/04/26 12:34:11;;;;;;;9.17;8.47;;;14.20;91.60;;;;;;5058135;28;20921;-85
2023/04/26 12:36:42;;;;;;;8.40;7.93;;;14.30;92.70;;;;;;5073066;28;20486;-85
2023/04/26 12:39:12;;;;;;;9.23;8.80;;;14.40;94.70;;;;;;5056673;28;20507;-84
2023/04/26 12:41:40;;;;;;;8.80;8.17;;;14.40;94.20;;;;;;5053005;28;20952;-84
2023/04/26 12:44:09;;;;;;;8.90;8.40;;;14.50;93.00;;;;;;5053433;28;20454;-85
2023/04/26 12:46:39;;;;;;;8.37;8.07;;;14.50;93.90;;;;;;5055682;28;20503;-84
2023/04/26 12:49:07;;;;;;;8.83;8.43;;;14.50;93.60;;;;;;5059295;28;21046;-83
2023/04/26 12:51:36;;;;;;;8.47;8.17;;;14.60;95.90;;;;;;5060167;28;20490;-84
2023/04/26 12:54:04;;;;;;;8.60;8.20;;;14.50;94.80;;;;;;5055533;28;21052;-84